createdAt,value
2023-03-17T00:02:25.818Z,95516.69
2023-03-17T00:04:54.088Z,95520.94
2023-03-17T00:07:22.558Z,95517.50
2023-03-17T00:09:50.693Z,95521.19
2023-03-17T00:12:22.534Z,95524.66
2023-03-17T00:15:20.568Z,95526.50
2023-03-17T00:18:05.411Z,95521.72
2023-03-17T00:20:52.263Z,95516.97
2023-03-17T00:23:28.290Z,95529.69
2023-03-17T00:26:09.552Z,95524.41
2023-03-17T00:28:40.326Z,95524.38
2023-03-17T00:31:15.771Z,95524.94
2023-03-17T00:33:45.179Z,95528.13
2023-03-17T00:36:16.804Z,95528.13
2023-03-17T00:38:44.922Z,95525.47
2023-03-17T00:41:13.471Z,95533.44
2023-03-17T00:43:43.064Z,95520.16
2023-03-17T00:46:19.180Z,95529.69
2023-03-17T00:48:49.141Z,95521.72
2023-03-17T00:51:17.738Z,95526.78
2023-03-17T00:53:46.028Z,95529.16
2023-03-17T00:56:16.332Z,95535.00
2023-03-17T00:58:46.660Z,95532.63
2023-03-17T01:01:15.228Z,95536.09
2023-03-17T01:03:46.372Z,95534.47
2023-03-17T01:06:21.093Z,95534.47
2023-03-17T01:08:50.314Z,95529.16
2023-03-17T01:11:21.547Z,95540.84
2023-03-17T01:13:51.048Z,95536.34
2023-03-17T01:16:18.974Z,95530.22
2023-03-17T01:18:46.949Z,95539.28
2023-03-17T01:21:15.440Z,95534.19
2023-03-17T01:23:43.676Z,95539.78
2023-03-17T01:26:12.730Z,95542.44
2023-03-17T01:28:40.611Z,95545.63
2023-03-17T01:31:10.490Z,95542.97
2023-03-17T01:33:38.388Z,95536.63
2023-03-17T01:36:06.839Z,95539.78
2023-03-17T01:38:35.490Z,95542.97
2023-03-17T01:41:03.416Z,95536.84
2023-03-17T01:43:31.869Z,95540.59
2023-03-17T01:46:21.916Z,95543.50
2023-03-17T01:48:56.784Z,95540.31
2023-03-17T01:51:31.890Z,95545.09
2023-03-17T01:54:01.351Z,95545.91
2023-03-17T01:56:30.276Z,95546.97
2023-03-17T01:59:00.757Z,95548.56
2023-03-17T02:01:35.434Z,95552.00
2023-03-17T02:04:04.591Z,95546.69
2023-03-17T02:06:33.502Z,95553.31
2023-03-17T02:09:02.000Z,95552.00
2023-03-17T02:11:30.692Z,95561.03
2023-03-17T02:14:21.822Z,95557.59
2023-03-17T02:16:51.179Z,95559.97
2023-03-17T02:19:21.077Z,95568.22
2023-03-17T02:21:51.978Z,95565.81
2023-03-17T02:24:30.018Z,95556.50
2023-03-17T02:27:02.386Z,95572.19
2023-03-17T02:29:33.694Z,95558.38
2023-03-17T02:32:01.768Z,95567.13
2023-03-17T02:34:29.769Z,95563.19
2023-03-17T02:36:59.528Z,95566.09
2023-03-17T02:39:27.707Z,95570.88
2023-03-17T02:41:55.935Z,95577.00
2023-03-17T02:44:23.784Z,95572.72
2023-03-17T02:46:51.920Z,95578.03
2023-03-17T02:49:20.724Z,95577.75
2023-03-17T02:51:48.640Z,95587.34
2023-03-17T02:54:18.264Z,95589.72
2023-03-17T02:56:46.532Z,95592.94
2023-03-17T02:59:14.371Z,95584.69
2023-03-17T03:01:42.214Z,95592.41
2023-03-17T03:04:10.150Z,95588.41
2023-03-17T03:06:39.849Z,95590.53
2023-03-17T03:09:07.797Z,95593.97
2023-03-17T03:11:37.017Z,95591.34
2023-03-17T03:14:04.971Z,95597.19
2023-03-17T03:19:34.678Z,95606.19
2023-03-17T03:22:02.868Z,95600.38
2023-03-17T03:24:30.756Z,95611.25
2023-03-17T03:26:59.956Z,95605.16
2023-03-17T03:29:28.113Z,95618.69
2023-03-17T03:31:56.260Z,95619.50
2023-03-17T03:34:24.120Z,95604.59
2023-03-17T03:36:51.934Z,95619.50
2023-03-17T03:39:19.812Z,95619.50
2023-03-17T03:41:47.727Z,95614.44
2023-03-17T03:44:17.023Z,95615.50
2023-03-17T03:46:44.938Z,95613.63
2023-03-17T03:49:13.369Z,95624.25
2023-03-17T03:51:41.590Z,95620.56
2023-03-17T03:54:09.503Z,95627.47
2023-03-17T03:56:51.613Z,95619.75
2023-03-17T03:59:29.537Z,95624.28
2023-03-17T04:01:57.513Z,95617.09
2023-03-17T04:04:26.429Z,95625.34
2023-03-17T04:06:56.498Z,95641.28
2023-03-17T04:09:28.895Z,95637.56
2023-03-17T04:11:56.793Z,95642.31
2023-03-17T04:14:26.070Z,95648.19
2023-03-17T04:16:54.163Z,95652.97
2023-03-17T04:19:23.573Z,95649.50
2023-03-17T04:21:53.729Z,95655.38
2023-03-17T04:24:23.017Z,95645.00
2023-03-17T04:26:51.991Z,95652.72
2023-03-17T04:29:20.174Z,95652.94
2023-03-17T04:31:49.380Z,95653.75
2023-03-17T04:34:19.497Z,95655.38
2023-03-17T04:36:48.882Z,95653.50
2023-03-17T04:39:19.541Z,95656.16
2023-03-17T04:42:01.733Z,95662.81
2023-03-17T04:44:36.606Z,95667.56
2023-03-17T04:47:25.946Z,95666.81
2023-03-17T04:49:58.936Z,95673.69
2023-03-17T04:52:42.891Z,95672.63
2023-03-17T04:55:20.381Z,95671.56
2023-03-17T05:00:41.741Z,95675.53
2023-03-17T05:03:26.137Z,95677.94
2023-03-17T05:05:55.588Z,95677.94
2023-03-17T05:08:23.494Z,95681.94
2023-03-17T05:10:51.792Z,95692.28
2023-03-17T05:13:19.887Z,95708.22
2023-03-17T05:15:50.788Z,95699.19
2023-03-17T05:18:23.840Z,95704.53
2023-03-17T05:20:52.422Z,95707.97
2023-03-17T05:23:22.788Z,95706.91
2023-03-17T05:25:51.357Z,95713.84
2023-03-17T05:28:19.444Z,95719.91
2023-03-17T05:30:48.086Z,95727.88
2023-03-17T05:33:16.453Z,95718.06
2023-03-17T05:35:46.531Z,95716.50
2023-03-17T05:38:18.296Z,95724.47
2023-03-17T05:40:49.481Z,95723.66
2023-03-17T05:43:17.521Z,95726.88
2023-03-17T05:45:45.627Z,95726.59
2023-03-17T05:48:13.552Z,95725.53
2023-03-17T05:50:42.602Z,95733.78
2023-03-17T05:53:12.273Z,95727.41
2023-03-17T05:55:40.617Z,95735.38
2023-03-17T05:58:09.575Z,95734.84
2023-03-17T06:00:38.137Z,95734.31
2023-03-17T06:03:06.489Z,95739.38
2023-03-17T06:05:34.952Z,95750.81
2023-03-17T06:08:06.775Z,95755.59
2023-03-17T06:10:36.399Z,95760.91
2023-03-17T06:13:05.153Z,95765.41
2023-03-17T06:15:34.432Z,95767.28
2023-03-17T06:18:02.509Z,95773.41
2023-03-17T06:20:31.283Z,95771.28
2023-03-17T06:23:05.617Z,95780.06
2023-03-17T06:25:35.899Z,95768.63
2023-03-17T06:28:04.342Z,95772.63
2023-03-17T06:30:33.731Z,95775.28
2023-03-17T06:33:02.127Z,95782.19
2023-03-17T06:35:30.737Z,95783.28
2023-03-17T06:37:59.037Z,95771.03
2023-03-17T06:40:26.980Z,95777.94
2023-03-17T06:42:56.627Z,95784.84
2023-03-17T06:45:24.706Z,95783.81
2023-03-17T06:47:52.603Z,95787.25
2023-03-17T06:50:21.012Z,95790.19
2023-03-17T06:52:48.902Z,95788.06
2023-03-17T06:55:17.565Z,95790.72
2023-03-17T06:57:45.554Z,95791.75
2023-03-17T07:00:16.046Z,95793.38
2023-03-17T07:02:44.222Z,95803.75
2023-03-17T07:05:13.942Z,95794.97
2023-03-17T07:07:43.638Z,95769.94
2023-03-17T07:10:13.828Z,95798.13
2023-03-17T07:12:42.672Z,95806.41
2023-03-17T07:15:13.566Z,95802.41
2023-03-17T07:17:42.998Z,95806.16
2023-03-17T07:20:16.089Z,95801.31
2023-03-17T07:22:44.087Z,95804.25
2023-03-17T07:25:14.284Z,95810.91
2023-03-17T07:27:42.312Z,95805.59
2023-03-17T07:30:15.209Z,95805.88
2023-03-17T07:32:44.783Z,95805.28
2023-03-17T07:35:16.298Z,95821.03
2023-03-17T07:37:44.642Z,95812.50
2023-03-17T07:40:14.930Z,95808.75
2023-03-17T07:42:43.570Z,95822.31
2023-03-17T07:45:12.998Z,95820.47
2023-03-17T07:47:43.819Z,95818.28
2023-03-17T07:50:18.587Z,95819.31
2023-03-17T07:52:48.359Z,95825.13
2023-03-17T07:55:17.571Z,95811.69
2023-03-17T07:57:47.906Z,95824.97
2023-03-17T08:00:18.836Z,95830.59
2023-03-17T08:03:09.472Z,95831.81
2023-03-17T08:05:44.758Z,95824.56
2023-03-17T08:08:14.100Z,95830.69
2023-03-17T08:10:42.268Z,95832.28
2023-03-17T08:13:15.187Z,95835.41
2023-03-17T08:15:43.924Z,95836.03
2023-03-17T08:18:14.441Z,95847.50
2023-03-17T08:20:47.343Z,95836.41
2023-03-17T08:23:17.624Z,95843.00
2023-03-17T08:25:48.927Z,95834.53
2023-03-17T08:28:18.219Z,95833.66
2023-03-17T08:30:53.115Z,95835.78
2023-03-17T08:33:22.728Z,95807.03
2023-03-17T08:35:53.630Z,95830.75
2023-03-17T08:38:24.267Z,95807.22
2023-03-17T08:40:52.909Z,95831.72
2023-03-17T08:43:20.858Z,95819.31
2023-03-17T08:45:48.903Z,95835.75
2023-03-17T08:48:19.079Z,95792.84
2023-03-17T08:50:48.939Z,95827.34
2023-03-17T08:53:22.051Z,95824.41
2023-03-17T08:55:58.045Z,95826.63
2023-03-17T08:58:27.501Z,95822.41
2023-03-17T09:00:59.949Z,95834.00
2023-03-17T09:03:28.164Z,95830.56
2023-03-17T09:05:59.172Z,95832.25
2023-03-17T09:08:33.960Z,95833.41
2023-03-17T09:11:05.682Z,95830.06
2023-03-17T09:13:34.172Z,95828.09
2023-03-17T09:16:03.150Z,95827.91
2023-03-17T09:18:39.099Z,95835.19
2023-03-17T09:21:08.719Z,95823.69
2023-03-17T09:23:38.289Z,95831.81
2023-03-17T09:26:06.738Z,95833.56
2023-03-17T09:28:35.427Z,95845.72
2023-03-17T09:31:11.971Z,95834.75
2023-03-17T09:33:41.653Z,95841.28
2023-03-17T09:36:12.153Z,95832.00
2023-03-17T09:38:41.482Z,95842.44
2023-03-17T09:41:40.628Z,95840.03
2023-03-17T09:44:16.346Z,95838.97
2023-03-17T09:46:55.906Z,95836.72
2023-03-17T09:49:29.206Z,95813.72
2023-03-17T09:52:01.970Z,95848.16
2023-03-17T09:54:35.999Z,95846.41
2023-03-17T09:57:14.980Z,95848.22
2023-03-17T09:59:45.931Z,95852.19
2023-03-17T10:02:22.657Z,95696.88
2023-03-17T10:04:54.762Z,95827.94
2023-03-17T10:07:28.832Z,95844.09
2023-03-17T10:10:02.989Z,95848.19
2023-03-17T10:12:45.540Z,95841.69
2023-03-17T10:15:22.463Z,95760.53
2023-03-17T10:17:52.374Z,95840.09
2023-03-17T10:20:27.308Z,95842.34
2023-03-17T10:22:59.453Z,95741.69
2023-03-17T10:25:31.942Z,95842.13
2023-03-17T10:28:16.631Z,95830.88
2023-03-17T10:30:52.614Z,95835.28
2023-03-17T10:33:22.427Z,95702.41
2023-03-17T10:35:50.692Z,95832.00
2023-03-17T10:38:21.204Z,95827.31
2023-03-17T10:41:02.510Z,95835.88
2023-03-17T10:43:43.453Z,95824.66
2023-03-17T10:46:22.498Z,95785.22
2023-03-17T10:49:04.998Z,95829.31
2023-03-17T10:51:39.146Z,95815.31
2023-03-17T10:54:13.951Z,95813.63
2023-03-17T10:56:47.270Z,95807.25
2023-03-17T10:59:24.180Z,95800.28
2023-03-17T11:01:59.312Z,95784.78
2023-03-17T11:04:31.394Z,95787.34
2023-03-17T11:07:01.979Z,95772.72
2023-03-17T11:09:38.236Z,95699.97
2023-03-17T11:12:20.312Z,95607.13
2023-03-17T11:14:51.600Z,95786.59
2023-03-17T11:17:28.149Z,95791.38
2023-03-17T11:20:05.546Z,95754.34
2023-03-17T11:22:40.647Z,95764.28
2023-03-17T11:28:04.760Z,95768.47
2023-03-17T11:30:37.334Z,95774.59
2023-03-17T11:33:14.820Z,95776.22
2023-03-17T11:35:51.527Z,95554.06
2023-03-17T11:38:26.269Z,95766.53
2023-03-17T11:41:17.129Z,95772.84
2023-03-17T11:44:01.625Z,95758.13
2023-03-17T11:46:35.711Z,95727.06
2023-03-17T11:49:14.855Z,95753.22
2023-03-17T11:51:56.710Z,95712.81
2023-03-17T11:54:34.384Z,95768.63
2023-03-17T11:57:07.588Z,95764.66
2023-03-17T11:59:43.046Z,95760.88
2023-03-17T12:02:21.569Z,95760.72
2023-03-17T12:04:55.688Z,95759.56
2023-03-17T12:07:27.276Z,95695.13
2023-03-17T12:10:17.379Z,95750.47
2023-03-17T12:12:51.206Z,95742.34
2023-03-17T12:15:28.145Z,95747.03
2023-03-17T12:18:00.917Z,95737.88
2023-03-17T12:20:34.997Z,95745.47
2023-03-17T12:23:07.847Z,95747.81
2023-03-17T12:25:42.601Z,95738.47
2023-03-17T12:28:16.902Z,95741.28
2023-03-17T12:30:51.028Z,95747.34
2023-03-17T12:33:25.802Z,95710.09
2023-03-17T12:35:53.829Z,95737.63
2023-03-17T12:38:31.436Z,95737.16
2023-03-17T12:41:19.128Z,95732.41
2023-03-17T12:44:02.345Z,95719.44
2023-03-17T12:47:08.491Z,95723.91
2023-03-17T12:50:07.295Z,95733.44
2023-03-17T12:52:50.382Z,95722.09
2023-03-17T12:55:19.670Z,95730.88
2023-03-17T12:57:58.834Z,95694.25
2023-03-17T13:00:29.714Z,95746.84
2023-03-17T13:03:18.732Z,95739.69
2023-03-17T13:05:48.776Z,95736.16
2023-03-17T13:08:25.838Z,95740.97
2023-03-17T13:11:18.642Z,95746.09
2023-03-17T13:13:59.113Z,95740.94
2023-03-17T13:16:30.421Z,95739.66
2023-03-17T13:19:22.593Z,95721.69
2023-03-17T13:21:53.302Z,95709.28
2023-03-17T13:24:47.002Z,95726.22
2023-03-17T13:27:16.033Z,95736.81
2023-03-17T13:29:48.767Z,95730.19
2023-03-17T13:32:42.883Z,95744.97
2023-03-17T13:35:38.982Z,95724.78
2023-03-17T13:38:46.741Z,95723.94
2023-03-17T13:41:30.296Z,95736.03
2023-03-17T13:44:12.412Z,95737.56
2023-03-17T13:46:44.150Z,95737.59
2023-03-17T13:49:22.602Z,95744.78
2023-03-17T13:52:00.276Z,95735.03
2023-03-17T13:54:34.280Z,95668.13
2023-03-17T13:57:24.102Z,95740.72
2023-03-17T13:59:58.466Z,95744.81
2023-03-17T14:02:30.582Z,95716.06
2023-03-17T14:05:01.832Z,95754.31
2023-03-17T14:07:38.104Z,95752.69
2023-03-17T14:10:08.080Z,95756.38
2023-03-17T14:12:46.111Z,95604.00
2023-03-17T14:15:21.588Z,95725.59
2023-03-17T14:17:54.762Z,95739.88
2023-03-17T14:20:24.897Z,95756.59
2023-03-17T14:23:00.047Z,95747.19
2023-03-17T14:25:33.697Z,95755.69
2023-03-17T14:28:02.028Z,95746.22
2023-03-17T14:30:31.680Z,95757.56
2023-03-17T14:33:04.625Z,95740.66
2023-03-17T14:35:34.670Z,95764.09
2023-03-17T14:38:04.264Z,95750.97
2023-03-17T14:40:36.894Z,95745.63
2023-03-17T14:43:05.390Z,95758.41
2023-03-17T14:45:48.652Z,95765.28
2023-03-17T14:48:24.550Z,95751.59
2023-03-17T14:50:55.122Z,95705.69
2023-03-17T14:53:26.459Z,95769.28
2023-03-17T14:55:57.348Z,95745.56
2023-03-17T14:58:28.548Z,95754.38
2023-03-17T15:00:59.257Z,95758.19
2023-03-17T15:03:31.838Z,95757.69
2023-03-17T15:06:24.218Z,95758.56
2023-03-17T15:08:54.582Z,95717.66
2023-03-17T15:11:28.217Z,95701.56
2023-03-17T15:14:04.910Z,95770.72
2023-03-17T15:16:36.203Z,95770.50
2023-03-17T15:19:07.894Z,95772.47
2023-03-17T15:21:41.070Z,95757.09
2023-03-17T15:24:26.463Z,95764.56
2023-03-17T15:27:02.046Z,95775.75
2023-03-17T15:29:31.064Z,95775.25
2023-03-17T15:32:10.413Z,95704.41
2023-03-17T15:34:38.373Z,95769.78
2023-03-17T15:37:15.457Z,95685.59
2023-03-17T15:39:44.887Z,95773.63
2023-03-17T15:42:12.850Z,95787.25
2023-03-17T15:44:41.296Z,95767.94
2023-03-17T15:47:14.269Z,95794.66
2023-03-17T15:49:42.235Z,95780.66
2023-03-17T15:52:16.522Z,95791.09
2023-03-17T15:54:46.283Z,95793.34
2023-03-17T15:57:14.878Z,95756.78
2023-03-17T15:59:42.839Z,95778.50
2023-03-17T16:02:25.893Z,95646.25
2023-03-17T16:04:54.375Z,95793.72
2023-03-17T16:07:23.303Z,95789.03
2023-03-17T16:09:52.564Z,95795.63
2023-03-17T16:12:21.247Z,95779.13
2023-03-17T16:14:49.167Z,95779.81
2023-03-17T16:17:25.260Z,95797.47
2023-03-17T16:19:54.432Z,95795.53
2023-03-17T16:22:39.039Z,95797.19
2023-03-17T16:25:19.914Z,95779.66
2023-03-17T16:27:48.210Z,95808.06
2023-03-17T16:30:18.396Z,95803.56
2023-03-17T16:32:46.345Z,95811.59
2023-03-17T16:35:19.282Z,95801.75
2023-03-17T16:37:47.551Z,95819.38
2023-03-17T16:40:22.511Z,95817.50
2023-03-17T16:42:50.491Z,95795.22
2023-03-17T16:45:23.664Z,95819.38
2023-03-17T16:47:51.644Z,95805.69
2023-03-17T16:50:21.605Z,95809.44
2023-03-17T16:52:49.554Z,95824.91
2023-03-17T16:55:26.475Z,95772.66
2023-03-17T16:57:59.030Z,95812.31
2023-03-17T17:00:30.609Z,95807.16
2023-03-17T17:02:59.468Z,95817.72
2023-03-17T17:05:30.082Z,95812.38
2023-03-17T17:07:59.147Z,95755.06
2023-03-17T17:10:29.488Z,95818.13
2023-03-17T17:13:00.292Z,95823.69
2023-03-17T17:15:30.520Z,95818.56
2023-03-17T17:18:02.231Z,95807.28
2023-03-17T17:20:32.752Z,95720.78
2023-03-17T17:23:02.473Z,95834.09
2023-03-17T17:25:31.455Z,95833.00
2023-03-17T17:28:01.407Z,95822.91
2023-03-17T17:30:31.458Z,95836.28
2023-03-17T17:33:02.466Z,95841.72
2023-03-17T17:35:33.151Z,95833.75
2023-03-17T17:38:01.682Z,95833.81
2023-03-17T17:40:30.858Z,95837.09
2023-03-17T17:43:00.745Z,95835.56
2023-03-17T17:45:28.581Z,95846.72
2023-03-17T17:47:56.534Z,95844.91
2023-03-17T17:50:26.625Z,95803.53
2023-03-17T17:53:02.735Z,95826.59
2023-03-17T17:55:35.418Z,95856.25
2023-03-17T17:58:08.302Z,95831.00
2023-03-17T18:00:45.280Z,95693.00
2023-03-17T18:03:13.699Z,95830.47
2023-03-17T18:05:41.740Z,95842.72
2023-03-17T18:08:09.744Z,95841.69
2023-03-17T18:10:38.272Z,95829.00
2023-03-17T18:13:09.981Z,95836.44
2023-03-17T18:15:45.896Z,95824.81
2023-03-17T18:18:15.804Z,95796.72
2023-03-17T18:20:46.070Z,95833.84
2023-03-17T18:23:16.515Z,95818.53
2023-03-17T18:25:45.108Z,95820.19
2023-03-17T18:28:17.541Z,95815.41
2023-03-17T18:30:47.832Z,95848.97
2023-03-17T18:33:19.795Z,95817.78
2023-03-17T18:35:49.917Z,95765.84
2023-03-17T18:38:17.997Z,95849.56
2023-03-17T18:40:46.357Z,95851.75
2023-03-17T18:43:15.900Z,95785.91
2023-03-17T18:45:44.646Z,95858.19
2023-03-17T18:48:12.620Z,95857.69
2023-03-17T18:50:40.540Z,95852.31
2023-03-17T18:53:12.257Z,95862.75
2023-03-17T18:55:41.272Z,95855.81
2023-03-17T18:58:09.550Z,95856.06
2023-03-17T19:00:44.600Z,95860.03
2023-03-17T19:03:12.908Z,95802.41
2023-03-17T19:05:41.846Z,95841.81
2023-03-17T19:08:11.625Z,95731.56
2023-03-17T19:10:43.466Z,95854.91
2023-03-17T19:13:12.290Z,95827.25
2023-03-17T19:15:44.458Z,95827.75
2023-03-17T19:18:16.361Z,95851.91
2023-03-17T19:20:45.429Z,95842.28
2023-03-17T19:23:18.849Z,95851.06
2023-03-17T19:25:52.756Z,95848.41
2023-03-17T19:28:29.584Z,95850.88
2023-03-17T19:31:00.214Z,95851.72
2023-03-17T19:33:29.554Z,95809.41
2023-03-17T19:36:00.132Z,95792.34
2023-03-17T19:38:28.515Z,95841.75
2023-03-17T19:40:56.723Z,95827.97
2023-03-17T19:43:39.413Z,95843.66
2023-03-17T19:46:14.201Z,95824.28
2023-03-17T19:48:42.213Z,95846.16
2023-03-17T19:51:13.794Z,95818.31
2023-03-17T19:53:41.748Z,95842.00
2023-03-17T19:56:10.935Z,95830.09
2023-03-17T19:58:39.520Z,95830.34
2023-03-17T20:01:10.437Z,95842.63
2023-03-17T20:03:42.763Z,95815.22
2023-03-17T20:06:12.067Z,95816.06
2023-03-17T20:08:40.756Z,95842.16
2023-03-17T20:11:10.732Z,95832.56
2023-03-17T20:13:38.848Z,95830.44
2023-03-17T20:16:08.222Z,95735.28
2023-03-17T20:18:40.901Z,95813.72
2023-03-17T20:21:14.230Z,95828.88
2023-03-17T20:23:42.275Z,95808.94
2023-03-17T20:26:11.611Z,95820.88
2023-03-17T20:28:42.529Z,95760.25
2023-03-17T20:31:10.828Z,95810.28
2023-03-17T20:33:43.224Z,95817.69
2023-03-17T20:36:12.836Z,95805.47
2023-03-17T20:38:43.126Z,95776.81
2023-03-17T20:41:14.235Z,95819.06
2023-03-17T20:43:48.242Z,95820.66
2023-03-17T20:46:28.879Z,95787.97
2023-03-17T20:49:01.795Z,95817.22
2023-03-17T20:51:30.066Z,95817.78
2023-03-17T20:54:03.237Z,95823.94
2023-03-17T20:56:33.831Z,95750.28
2023-03-17T20:59:05.210Z,95808.53
2023-03-17T21:01:36.683Z,95774.75
2023-03-17T21:04:12.041Z,95823.19
2023-03-17T21:06:41.549Z,95824.22
2023-03-17T21:09:10.807Z,95839.13
2023-03-17T21:11:39.164Z,95815.72
2023-03-17T21:14:08.052Z,95793.88
2023-03-17T21:16:38.447Z,95814.09
2023-03-17T21:19:09.748Z,95785.38
2023-03-17T21:21:40.474Z,95813.56
2023-03-17T21:24:10.143Z,95822.59
2023-03-17T21:26:40.471Z,95810.91
2023-03-17T21:29:10.373Z,95805.84
2023-03-17T21:31:43.272Z,95792.81
2023-03-17T21:34:20.596Z,95811.72
2023-03-17T21:36:51.352Z,95760.63
2023-03-17T21:39:20.998Z,95815.47
2023-03-17T21:41:50.981Z,95789.38
2023-03-17T21:44:30.985Z,95808.00
2023-03-17T21:47:03.437Z,95814.13
2023-03-17T21:49:34.688Z,95671.56
2023-03-17T21:52:12.591Z,95804.81
2023-03-17T21:54:42.804Z,95810.41
2023-03-17T21:57:11.897Z,95805.63
2023-03-17T21:59:42.710Z,95798.69
2023-03-17T22:02:14.682Z,95810.94
2023-03-17T22:04:56.042Z,95811.47
2023-03-17T22:07:24.810Z,95812.25
2023-03-17T22:09:59.883Z,95805.59
2023-03-17T22:12:32.136Z,95808.56
2023-03-17T22:15:00.361Z,95813.88
2023-03-17T22:17:30.977Z,95790.72
2023-03-17T22:20:01.343Z,95810.41
2023-03-17T22:22:35.857Z,95809.84
2023-03-17T22:25:10.230Z,95800.03
2023-03-17T22:28:00.110Z,95795.50
2023-03-17T22:33:25.823Z,95782.97
2023-03-17T22:36:06.020Z,95772.88
2023-03-17T22:38:51.851Z,95799.22
2023-03-17T22:44:24.012Z,95772.06
2023-03-17T22:47:01.182Z,95792.81
2023-03-17T22:49:57.826Z,95802.69
2023-03-17T22:52:44.742Z,95782.44
2023-03-17T22:55:16.064Z,95788.56
2023-03-17T23:00:39.609Z,95770.41
2023-03-17T23:03:14.664Z,95727.88
2023-03-17T23:05:57.671Z,95778.44
2023-03-17T23:08:39.771Z,95774.16
2023-03-17T23:11:13.765Z,95780.28
2023-03-17T23:13:50.605Z,95782.44
2023-03-17T23:16:19.096Z,95775.78
2023-03-17T23:18:49.473Z,95782.69
2023-03-17T23:21:28.180Z,95719.06
2023-03-17T23:24:20.823Z,95778.69
2023-03-17T23:27:04.685Z,95784.78
2023-03-17T23:29:41.287Z,95769.31
2023-03-17T23:32:17.609Z,95786.38
2023-03-17T23:34:48.342Z,95777.81
2023-03-17T23:37:17.186Z,95781.53
2023-03-17T23:40:07.567Z,95787.31
2023-03-17T23:42:38.464Z,95765.25
2023-03-17T23:48:12.018Z,95778.78
2023-03-17T23:50:41.532Z,95777.44
2023-03-17T23:53:10.093Z,95780.66
2023-03-17T23:55:58.181Z,95770.84
2023-03-17T23:58:27.045Z,95767.09
